createdAt,value
2023-08-26T00:01:49.907Z,9.00
2023-08-26T00:04:51.985Z,8.68
2023-08-26T00:07:54.429Z,8.40
2023-08-26T00:10:56.849Z,8.00
2023-08-26T00:13:58.860Z,8.38
2023-08-26T00:17:00.995Z,8.32
2023-08-26T00:23:09.882Z,8.07
2023-08-26T00:26:12.449Z,8.40
2023-08-26T00:29:15.166Z,8.48
2023-08-26T00:32:17.277Z,9.00
2023-08-26T00:35:19.445Z,7.97
2023-08-26T00:38:21.608Z,8.48
2023-08-26T00:41:23.795Z,7.28
2023-08-26T00:44:26.120Z,7.90
2023-08-26T00:47:28.494Z,7.95
2023-08-26T00:50:30.627Z,8.52
2023-08-26T00:53:33.413Z,8.27
2023-08-26T00:56:37.051Z,8.32
2023-08-26T00:59:39.166Z,7.22
2023-08-26T01:02:41.494Z,7.70
2023-08-26T01:05:43.833Z,8.35
2023-08-26T01:08:45.862Z,8.13
2023-08-26T01:11:48.062Z,8.10
2023-08-26T01:14:52.385Z,8.02
2023-08-26T01:17:54.786Z,9.00
2023-08-26T01:20:57.075Z,8.27
2023-08-26T01:23:59.837Z,8.15
2023-08-26T01:27:02.038Z,8.57
2023-08-26T01:30:06.481Z,8.32
2023-08-26T01:33:15.872Z,8.38
2023-08-26T01:36:20.735Z,7.88
2023-08-26T01:39:22.996Z,7.57
2023-08-26T01:42:25.713Z,8.10
2023-08-26T01:45:27.906Z,8.68
2023-08-26T01:48:29.943Z,7.95
2023-08-26T01:51:32.382Z,8.10
2023-08-26T01:54:34.553Z,7.95
2023-08-26T01:57:36.606Z,8.98
2023-08-26T02:03:41.046Z,8.07
2023-08-26T02:06:43.397Z,8.02
2023-08-26T02:12:47.448Z,7.78
2023-08-26T02:15:49.556Z,7.65
2023-08-26T02:18:51.786Z,7.50
2023-08-26T02:21:53.897Z,7.80
2023-08-26T02:24:59.194Z,6.30
2023-08-26T02:28:01.556Z,7.57
2023-08-26T02:31:04.262Z,7.35
2023-08-26T02:34:06.751Z,7.43
2023-08-26T02:37:08.907Z,7.10
2023-08-26T02:40:11.784Z,7.63
2023-08-26T02:43:13.834Z,7.00
2023-08-26T02:46:17.107Z,7.38
2023-08-26T02:49:19.400Z,7.00
2023-08-26T02:52:21.473Z,7.20
2023-08-26T02:55:23.599Z,7.75
2023-08-26T02:58:26.009Z,7.30
2023-08-26T03:01:31.769Z,7.35
2023-08-26T03:04:34.534Z,7.70
2023-08-26T03:07:36.640Z,7.15
2023-08-26T03:10:38.681Z,6.72
2023-08-26T03:13:42.171Z,7.55
2023-08-26T03:16:44.289Z,6.82
2023-08-26T03:19:46.360Z,7.63
2023-08-26T03:22:48.497Z,7.85
2023-08-26T03:25:50.595Z,7.03
2023-08-26T03:28:53.622Z,7.47
2023-08-26T03:31:56.149Z,8.23
2023-08-26T03:35:00.037Z,7.65
2023-08-26T03:38:02.127Z,7.78
2023-08-26T03:41:07.830Z,8.15
2023-08-26T03:44:09.938Z,7.93
2023-08-26T03:47:12.043Z,8.40
2023-08-26T03:50:14.129Z,8.68
2023-08-26T03:53:19.007Z,9.95
2023-08-26T03:56:21.131Z,8.95
2023-08-26T03:59:23.193Z,8.73
2023-08-26T04:02:27.107Z,9.40
2023-08-26T04:08:31.579Z,8.30
2023-08-26T04:11:33.959Z,9.18
2023-08-26T04:14:36.636Z,8.95
2023-08-26T04:17:41.505Z,10.15
2023-08-26T04:20:46.643Z,9.45
2023-08-26T04:23:48.808Z,10.20
2023-08-26T04:26:50.987Z,9.68
2023-08-26T04:29:53.135Z,10.13
2023-08-26T04:32:55.299Z,8.93
2023-08-26T04:35:57.611Z,9.65
2023-08-26T04:38:59.648Z,11.25
2023-08-26T04:42:02.355Z,10.70
2023-08-26T04:45:05.003Z,10.65
2023-08-26T04:48:08.170Z,10.13
2023-08-26T04:51:10.410Z,10.75
2023-08-26T04:54:12.555Z,11.20
2023-08-26T04:57:15.093Z,9.82
2023-08-26T05:00:17.723Z,10.60
2023-08-26T05:03:21.327Z,11.85
2023-08-26T05:06:23.539Z,11.70
2023-08-26T05:09:25.692Z,10.48
2023-08-26T05:12:28.634Z,10.15
2023-08-26T05:15:30.831Z,10.23
2023-08-26T05:18:33.076Z,10.45
2023-08-26T05:21:35.441Z,9.85
2023-08-26T05:27:39.752Z,10.18
2023-08-26T05:30:43.664Z,8.88
2023-08-26T05:36:48.125Z,9.30
2023-08-26T05:42:52.718Z,8.68
2023-08-26T05:45:56.300Z,8.45
2023-08-26T05:48:58.489Z,9.15
2023-08-26T05:52:00.620Z,9.48
2023-08-26T05:55:03.100Z,9.00
2023-08-26T05:58:05.175Z,8.90
2023-08-26T06:01:07.306Z,8.98
2023-08-26T06:04:10.502Z,8.75
2023-08-26T06:07:12.692Z,9.27
2023-08-26T06:10:14.826Z,9.40
2023-08-26T06:13:17.612Z,9.10
2023-08-26T06:16:23.016Z,9.35
2023-08-26T06:19:25.381Z,8.45
2023-08-26T06:25:29.576Z,10.35
2023-08-26T06:28:32.137Z,10.15
2023-08-26T06:31:34.395Z,10.23
2023-08-26T06:34:37.856Z,10.02
2023-08-26T06:37:39.966Z,10.93
2023-08-26T06:40:42.478Z,10.65
2023-08-26T06:43:44.745Z,10.27
2023-08-26T06:46:55.921Z,10.75
2023-08-26T06:49:58.146Z,9.40
2023-08-26T06:53:00.488Z,9.93
2023-08-26T06:56:02.635Z,10.98
2023-08-26T06:59:04.885Z,10.57
2023-08-26T07:05:09.370Z,10.93
2023-08-26T07:11:14.333Z,11.10
2023-08-26T07:14:16.478Z,10.60
2023-08-26T07:17:19.365Z,11.23
2023-08-26T07:20:21.739Z,11.35
2023-08-26T07:23:23.852Z,11.82
2023-08-26T07:26:25.918Z,11.27
2023-08-26T07:29:28.324Z,11.68
2023-08-26T07:32:32.073Z,11.68
2023-08-26T07:38:36.218Z,11.80
2023-08-26T07:41:38.524Z,11.77
2023-08-26T07:50:48.610Z,12.07
2023-08-26T07:53:50.967Z,11.77
2023-08-26T07:56:53.055Z,11.77
2023-08-26T08:02:57.754Z,11.07
2023-08-26T08:06:00.169Z,11.90
2023-08-26T08:12:04.401Z,11.80
2023-08-26T08:15:07.009Z,10.80
2023-08-26T08:18:09.140Z,12.18
2023-08-26T08:21:11.289Z,10.45
2023-08-26T08:24:13.486Z,11.98
2023-08-26T08:27:15.967Z,12.15
2023-08-26T08:30:18.114Z,11.75
2023-08-26T08:33:20.318Z,12.93
2023-08-26T08:36:22.546Z,12.40
2023-08-26T08:39:24.923Z,11.95
2023-08-26T08:42:27.765Z,11.70
2023-08-26T08:45:29.820Z,12.63
2023-08-26T08:48:35.247Z,12.63
2023-08-26T08:51:37.378Z,12.80
2023-08-26T08:54:39.498Z,12.98
2023-08-26T08:57:42.140Z,12.13
2023-08-26T09:00:44.625Z,14.32
2023-08-26T09:03:47.398Z,13.52
2023-08-26T09:06:50.411Z,13.77
2023-08-26T09:10:01.097Z,14.32
2023-08-26T09:13:05.909Z,13.75
2023-08-26T09:16:08.897Z,13.38
2023-08-26T09:19:12.146Z,14.27
2023-08-26T09:22:14.492Z,13.15
2023-08-26T09:25:16.644Z,13.52
2023-08-26T09:28:18.758Z,13.80
2023-08-26T09:31:21.121Z,13.40
2023-08-26T09:34:24.134Z,13.50
2023-08-26T09:37:30.218Z,12.48
2023-08-26T09:40:32.281Z,12.63
2023-08-26T09:43:34.545Z,13.02
2023-08-26T09:46:37.812Z,12.23
2023-08-26T09:49:39.931Z,12.63
2023-08-26T09:52:43.147Z,12.20
2023-08-26T09:55:45.301Z,12.55
2023-08-26T09:58:47.409Z,11.50
2023-08-26T10:01:49.905Z,11.25
2023-08-26T10:04:53.749Z,11.55
2023-08-26T10:07:56.051Z,10.07
2023-08-26T10:10:58.427Z,9.07
2023-08-26T10:14:00.513Z,11.00
2023-08-26T10:17:04.079Z,10.07
2023-08-26T10:20:06.987Z,11.10
2023-08-26T10:23:11.253Z,8.80
2023-08-26T10:26:13.321Z,9.18
2023-08-26T10:29:15.400Z,8.75
2023-08-26T10:32:20.982Z,10.13
2023-08-26T10:35:23.089Z,9.38
2023-08-26T10:38:25.230Z,10.68
2023-08-26T10:41:27.374Z,10.70
2023-08-26T10:44:32.708Z,10.50
2023-08-26T10:47:38.974Z,10.30
2023-08-26T10:50:48.872Z,9.70
2023-08-26T10:53:51.339Z,10.15
2023-08-26T10:57:01.446Z,9.75
2023-08-26T11:00:09.142Z,9.52
2023-08-26T11:03:11.793Z,10.45
2023-08-26T11:06:21.194Z,9.02
2023-08-26T11:09:23.485Z,7.85
2023-08-26T11:12:29.113Z,10.00
2023-08-26T11:15:40.936Z,9.38
2023-08-26T11:18:43.655Z,9.38
2023-08-26T11:21:45.786Z,9.70
2023-08-26T11:24:49.070Z,9.23
2023-08-26T11:27:54.432Z,8.88
2023-08-26T11:30:56.791Z,8.88
2023-08-26T11:33:59.103Z,9.90
2023-08-26T11:37:01.271Z,10.05
2023-08-26T11:40:07.077Z,9.15
2023-08-26T11:43:12.075Z,8.80
2023-08-26T11:46:14.171Z,8.60
2023-08-26T11:49:16.289Z,9.40
2023-08-26T11:52:18.387Z,9.07
2023-08-26T11:55:20.588Z,9.80
2023-08-26T11:58:22.832Z,11.35
2023-08-26T12:01:25.204Z,9.82
2023-08-26T12:04:27.278Z,9.55
2023-08-26T12:07:32.264Z,9.23
2023-08-26T12:10:34.316Z,9.82
2023-08-26T12:13:39.923Z,10.13
2023-08-26T12:16:42.102Z,9.50
2023-08-26T12:19:44.273Z,10.57
2023-08-26T12:22:46.320Z,9.38
2023-08-26T12:25:48.688Z,9.85
2023-08-26T12:28:50.849Z,9.93
2023-08-26T12:31:52.979Z,9.82
2023-08-26T12:34:55.121Z,9.07
2023-08-26T12:37:57.705Z,8.95
2023-08-26T12:41:00.128Z,9.18
2023-08-26T12:44:02.206Z,8.77
2023-08-26T12:47:04.498Z,9.30
2023-08-26T12:50:06.972Z,8.68
2023-08-26T12:53:09.009Z,8.30
2023-08-26T12:56:11.836Z,9.10
2023-08-26T12:59:13.912Z,9.30
2023-08-26T13:02:16.150Z,9.07
2023-08-26T13:05:18.370Z,9.43
2023-08-26T13:08:20.735Z,8.75
2023-08-26T13:11:23.028Z,9.23
2023-08-26T13:14:25.223Z,9.02
2023-08-26T13:17:27.999Z,9.55
2023-08-26T13:20:30.883Z,9.95
2023-08-26T13:23:33.011Z,9.60
2023-08-26T13:26:35.241Z,9.02
2023-08-26T13:29:37.573Z,9.10
2023-08-26T13:32:39.764Z,9.25
2023-08-26T13:35:42.120Z,8.57
2023-08-26T13:38:44.475Z,9.15
2023-08-26T13:41:46.948Z,9.05
2023-08-26T13:44:49.189Z,8.57
2023-08-26T13:47:51.409Z,9.05
2023-08-26T13:50:55.888Z,8.90
2023-08-26T13:54:00.320Z,9.07
2023-08-26T13:57:02.573Z,8.95
2023-08-26T14:00:05.301Z,8.63
2023-08-26T14:03:14.249Z,8.73
2023-08-26T14:06:16.400Z,8.90
2023-08-26T14:09:22.630Z,9.98
2023-08-26T14:12:24.841Z,8.30
2023-08-26T14:15:27.002Z,8.88
2023-08-26T14:18:29.462Z,9.50
2023-08-26T14:21:31.568Z,9.57
2023-08-26T14:24:33.699Z,9.15
2023-08-26T14:27:35.826Z,8.45
2023-08-26T14:30:38.322Z,9.50
2023-08-26T14:33:40.833Z,8.57
2023-08-26T14:36:43.051Z,9.00
2023-08-26T14:39:45.105Z,9.00
2023-08-26T14:42:48.243Z,8.20
2023-08-26T14:45:50.428Z,11.43
2023-08-26T14:48:52.841Z,9.43
2023-08-26T14:51:54.896Z,10.07
2023-08-26T14:54:56.972Z,8.60
2023-08-26T14:57:59.791Z,8.65
2023-08-26T15:01:02.010Z,9.15
2023-08-26T15:04:04.406Z,8.32
2023-08-26T15:07:08.640Z,8.55
2023-08-26T15:10:11.337Z,8.55
2023-08-26T15:13:14.044Z,8.38
2023-08-26T15:16:17.501Z,9.13
2023-08-26T15:19:19.632Z,7.88
2023-08-26T15:22:21.695Z,7.78
2023-08-26T15:25:23.758Z,8.35
2023-08-26T15:28:25.849Z,8.35
2023-08-26T15:31:28.120Z,7.82
2023-08-26T15:34:30.273Z,8.23
2023-08-26T15:37:32.417Z,8.88
2023-08-26T15:40:34.574Z,8.85
2023-08-26T15:43:36.718Z,7.72
2023-08-26T15:46:38.825Z,8.35
2023-08-26T15:49:40.926Z,9.02
2023-08-26T15:52:43.007Z,8.77
2023-08-26T15:55:45.376Z,8.35
2023-08-26T15:58:47.602Z,9.27
2023-08-26T16:01:49.803Z,8.35
2023-08-26T16:04:51.891Z,8.02
2023-08-26T16:07:54.213Z,9.32
2023-08-26T16:10:56.671Z,7.13
2023-08-26T16:13:58.931Z,9.20
2023-08-26T16:17:01.034Z,9.00
2023-08-26T16:20:03.369Z,8.93
2023-08-26T16:23:05.465Z,8.57
2023-08-26T16:26:07.745Z,7.60
2023-08-26T16:29:09.885Z,8.73
2023-08-26T16:32:12.193Z,8.35
2023-08-26T16:35:14.298Z,8.68
2023-08-26T16:38:16.358Z,8.70
2023-08-26T16:41:18.630Z,8.18
2023-08-26T16:44:20.728Z,9.00
2023-08-26T16:47:23.101Z,8.75
2023-08-26T16:50:25.230Z,8.90
2023-08-26T16:53:27.524Z,7.88
2023-08-26T16:56:29.825Z,8.75
2023-08-26T16:59:31.997Z,7.55
2023-08-26T17:02:34.186Z,8.80
2023-08-26T17:05:36.837Z,8.07
2023-08-26T17:08:38.928Z,8.32
2023-08-26T17:11:41.086Z,8.38
2023-08-26T17:14:45.652Z,8.07
2023-08-26T17:17:48.044Z,8.73
2023-08-26T17:20:50.157Z,8.07
2023-08-26T17:23:52.426Z,7.50
2023-08-26T17:26:56.230Z,8.20
2023-08-26T17:29:58.334Z,7.90
2023-08-26T17:33:01.398Z,9.23
2023-08-26T17:36:03.897Z,9.02
2023-08-26T17:39:06.059Z,8.75
2023-08-26T17:42:08.160Z,9.13
2023-08-26T17:45:10.967Z,9.18
2023-08-26T17:48:13.757Z,8.77
2023-08-26T17:51:15.874Z,8.80
2023-08-26T17:54:18.225Z,8.00
2023-08-26T17:57:20.280Z,9.48
2023-08-26T18:00:22.449Z,9.80
2023-08-26T18:03:24.626Z,9.38
2023-08-26T18:06:26.797Z,9.13
2023-08-26T18:09:29.054Z,8.68
2023-08-26T18:12:31.127Z,9.10
2023-08-26T18:15:36.665Z,8.65
2023-08-26T18:18:38.903Z,9.15
2023-08-26T18:21:43.161Z,9.98
2023-08-26T18:24:45.400Z,11.20
2023-08-26T18:27:47.921Z,12.02
2023-08-26T18:30:50.146Z,11.95
2023-08-26T18:33:52.359Z,10.80
2023-08-26T18:36:56.771Z,11.10
2023-08-26T18:39:58.995Z,10.85
2023-08-26T18:43:01.332Z,10.68
2023-08-26T18:46:03.997Z,9.88
2023-08-26T18:49:06.250Z,9.48
2023-08-26T18:52:10.501Z,9.25
2023-08-26T18:55:12.565Z,9.93
2023-08-26T18:58:15.830Z,8.55
2023-08-26T19:01:18.013Z,9.32
2023-08-26T19:04:20.293Z,8.77
2023-08-26T19:07:23.035Z,9.48
2023-08-26T19:10:25.461Z,8.82
2023-08-26T19:13:27.740Z,9.07
2023-08-26T19:16:30.263Z,9.02
2023-08-26T19:19:32.674Z,8.45
2023-08-26T19:22:36.956Z,8.90
2023-08-26T19:25:40.288Z,9.98
2023-08-26T19:28:42.478Z,9.88
2023-08-26T19:31:44.734Z,9.82
2023-08-26T19:34:46.906Z,10.32
2023-08-26T19:37:49.014Z,9.73
2023-08-26T19:40:51.281Z,9.90
2023-08-26T19:43:53.543Z,10.13
2023-08-26T19:46:55.799Z,9.43
2023-08-26T19:49:58.372Z,9.77
2023-08-26T19:53:00.603Z,10.80
2023-08-26T19:56:02.954Z,10.05
2023-08-26T19:59:05.335Z,9.88
2023-08-26T20:02:07.997Z,10.38
2023-08-26T20:05:10.214Z,9.55
2023-08-26T20:08:13.234Z,9.52
2023-08-26T20:11:15.505Z,9.07
2023-08-26T20:14:17.648Z,8.75
2023-08-26T20:17:19.719Z,8.90
2023-08-26T20:23:23.964Z,8.75
2023-08-26T20:26:26.081Z,7.85
2023-08-26T20:32:30.558Z,8.25
2023-08-26T20:38:37.129Z,9.02
2023-08-26T20:41:41.674Z,8.20
2023-08-26T20:44:45.091Z,8.57
2023-08-26T20:47:47.239Z,9.05
2023-08-26T20:53:51.599Z,7.20
2023-08-26T20:56:53.708Z,7.93
2023-08-26T21:02:58.324Z,8.13
2023-08-26T21:06:04.305Z,8.35
2023-08-26T21:09:06.521Z,9.20
2023-08-26T21:12:08.769Z,9.50
2023-08-26T21:15:11.025Z,9.77
2023-08-26T21:18:13.198Z,9.63
2023-08-26T21:21:15.546Z,10.10
2023-08-26T21:24:17.647Z,10.02
2023-08-26T21:27:19.909Z,9.27
2023-08-26T21:33:23.938Z,9.25
2023-08-26T21:36:26.172Z,8.98
2023-08-26T21:39:28.590Z,9.05
2023-08-26T21:42:31.245Z,8.20
2023-08-26T21:45:33.634Z,8.05
2023-08-26T21:48:35.737Z,8.88
2023-08-26T21:51:37.830Z,8.40
2023-08-26T21:54:39.861Z,8.40
2023-08-26T21:57:59.315Z,8.73
2023-08-26T22:01:01.526Z,7.97
2023-08-26T22:04:04.673Z,8.80
2023-08-26T22:07:07.406Z,8.25
2023-08-26T22:10:09.691Z,8.60
2023-08-26T22:13:11.795Z,8.55
2023-08-26T22:19:17.128Z,8.35
2023-08-26T22:22:19.372Z,8.38
2023-08-26T22:25:21.397Z,9.50
2023-08-26T22:28:23.791Z,8.95
2023-08-26T22:31:26.170Z,8.93
2023-08-26T22:34:28.434Z,8.63
2023-08-26T22:37:31.451Z,8.60
2023-08-26T22:40:33.768Z,8.95
2023-08-26T22:43:36.038Z,8.90
2023-08-26T22:49:41.572Z,8.98
2023-08-26T22:52:43.696Z,9.35
2023-08-26T22:55:45.879Z,8.93
2023-08-26T22:58:47.931Z,9.45
2023-08-26T23:04:52.067Z,9.75
2023-08-26T23:07:54.203Z,9.25
2023-08-26T23:10:56.337Z,9.25
2023-08-26T23:13:58.389Z,8.73
2023-08-26T23:17:00.423Z,8.32
2023-08-26T23:20:02.783Z,8.23
2023-08-26T23:23:04.992Z,8.43
2023-08-26T23:29:09.037Z,9.38
2023-08-26T23:32:11.080Z,7.82
2023-08-26T23:35:13.157Z,8.93
2023-08-26T23:38:15.218Z,9.02
2023-08-26T23:41:17.388Z,8.63
2023-08-26T23:44:20.267Z,8.02
2023-08-26T23:47:22.380Z,8.73
2023-08-26T23:50:24.481Z,8.75
2023-08-26T23:53:26.588Z,8.57
2023-08-26T23:56:28.645Z,9.25
2023-08-26T23:59:30.780Z,8.25
